sensor_id;sensor_type;location;lat;lon;timestamp;P1;durP1;ratioP1;P2;durP2;ratioP2
10588;SDS011;5342;55.676;13.346;2022-10-22T00:01:25;50.17;;;33.67;;
10588;SDS011;5342;55.676;13.346;2022-10-22T00:03:53;45.87;;;33.77;;
10588;SDS011;5342;55.676;13.346;2022-10-22T00:06:19;52.03;;;32.70;;
10588;SDS011;5342;55.676;13.346;2022-10-22T00:08:46;51.90;;;33.30;;
10588;SDS011;5342;55.676;13.346;2022-10-22T00:11:13;52.50;;;33.40;;
10588;SDS011;5342;55.676;13.346;2022-10-22T00:13:40;51.20;;;33.80;;
10588;SDS011;5342;55.676;13.346;2022-10-22T00:16:07;55.40;;;33.53;;
10588;SDS011;5342;55.676;13.346;2022-10-22T00:18:34;51.63;;;33.60;;
10588;SDS011;5342;55.676;13.346;2022-10-22T00:21:01;53.67;;;34.93;;
10588;SDS011;5342;55.676;13.346;2022-10-22T00:23:27;49.80;;;31.83;;
10588;SDS011;5342;55.676;13.346;2022-10-22T00:25:54;57.67;;;35.33;;
10588;SDS011;5342;55.676;13.346;2022-10-22T00:28:20;59.40;;;34.43;;
10588;SDS011;5342;55.676;13.346;2022-10-22T00:30:47;55.20;;;32.77;;
10588;SDS011;5342;55.676;13.346;2022-10-22T00:33:13;48.10;;;32.97;;
10588;SDS011;5342;55.676;13.346;2022-10-22T00:35:40;54.70;;;35.00;;
10588;SDS011;5342;55.676;13.346;2022-10-22T00:38:06;55.20;;;34.73;;
10588;SDS011;5342;55.676;13.346;2022-10-22T00:40:33;54.30;;;34.20;;
10588;SDS011;5342;55.676;13.346;2022-10-22T00:43:00;58.17;;;34.97;;
10588;SDS011;5342;55.676;13.346;2022-10-22T00:45:26;54.20;;;35.53;;
10588;SDS011;5342;55.676;13.346;2022-10-22T00:48:35;52.83;;;34.50;;
10588;SDS011;5342;55.676;13.346;2022-10-22T00:50:49;60.40;;;34.63;;
10588;SDS011;5342;55.676;13.346;2022-10-22T00:53:21;50.60;;;33.93;;
10588;SDS011;5342;55.676;13.346;2022-10-22T00:55:49;56.40;;;35.13;;
10588;SDS011;5342;55.676;13.346;2022-10-22T00:58:17;60.97;;;37.83;;
10588;SDS011;5342;55.676;13.346;2022-10-22T01:00:46;57.20;;;35.03;;
10588;SDS011;5342;55.676;13.346;2022-10-22T01:03:12;56.40;;;35.93;;
10588;SDS011;5342;55.676;13.346;2022-10-22T01:05:58;58.23;;;35.67;;
10588;SDS011;5342;55.676;13.346;2022-10-22T01:16:14;54.27;;;35.30;;
10588;SDS011;5342;55.676;13.346;2022-10-22T01:18:54;59.20;;;36.53;;
10588;SDS011;5342;55.676;13.346;2022-10-22T01:21:32;57.90;;;35.80;;
10588;SDS011;5342;55.676;13.346;2022-10-22T01:29:12;56.50;;;35.60;;
10588;SDS011;5342;55.676;13.346;2022-10-22T01:31:45;78.28;;;47.38;;
10588;SDS011;5342;55.676;13.346;2022-10-22T01:34:14;63.00;;;38.87;;
10588;SDS011;5342;55.676;13.346;2022-10-22T01:36:42;61.97;;;36.63;;
10588;SDS011;5342;55.676;13.346;2022-10-22T01:39:10;56.13;;;36.50;;
10588;SDS011;5342;55.676;13.346;2022-10-22T01:41:38;61.60;;;34.90;;
10588;SDS011;5342;55.676;13.346;2022-10-22T01:44:04;58.57;;;35.60;;
10588;SDS011;5342;55.676;13.346;2022-10-22T01:46:31;70.53;;;38.30;;
10588;SDS011;5342;55.676;13.346;2022-10-22T01:51:43;65.17;;;36.83;;
10588;SDS011;5342;55.676;13.346;2022-10-22T01:54:20;67.47;;;37.43;;
10588;SDS011;5342;55.676;13.346;2022-10-22T02:04:40;65.60;;;37.03;;
10588;SDS011;5342;55.676;13.346;2022-10-22T02:07:07;67.00;;;39.93;;
10588;SDS011;5342;55.676;13.346;2022-10-22T02:09:36;77.37;;;40.17;;
10588;SDS011;5342;55.676;13.346;2022-10-22T02:12:03;66.07;;;38.43;;
10588;SDS011;5342;55.676;13.346;2022-10-22T02:14:31;79.23;;;40.00;;
10588;SDS011;5342;55.676;13.346;2022-10-22T02:16:59;83.30;;;40.80;;
10588;SDS011;5342;55.676;13.346;2022-10-22T02:19:27;72.60;;;40.73;;
10588;SDS011;5342;55.676;13.346;2022-10-22T02:21:55;77.37;;;41.97;;
10588;SDS011;5342;55.676;13.346;2022-10-22T02:24:22;84.07;;;41.93;;
10588;SDS011;5342;55.676;13.346;2022-10-22T02:32:11;94.35;;;47.50;;
10588;SDS011;5342;55.676;13.346;2022-10-22T02:34:41;86.50;;;41.53;;
10588;SDS011;5342;55.676;13.346;2022-10-22T02:37:08;74.20;;;40.60;;
10588;SDS011;5342;55.676;13.346;2022-10-22T02:39:34;74.33;;;40.33;;
10588;SDS011;5342;55.676;13.346;2022-10-22T02:42:01;78.63;;;41.00;;
10588;SDS011;5342;55.676;13.346;2022-10-22T02:44:28;73.87;;;39.60;;
10588;SDS011;5342;55.676;13.346;2022-10-22T02:46:54;67.27;;;36.73;;
10588;SDS011;5342;55.676;13.346;2022-10-22T02:49:21;70.87;;;39.03;;
10588;SDS011;5342;55.676;13.346;2022-10-22T02:51:47;70.67;;;37.47;;
10588;SDS011;5342;55.676;13.346;2022-10-22T02:54:14;70.60;;;39.00;;
10588;SDS011;5342;55.676;13.346;2022-10-22T02:56:40;74.23;;;39.70;;
10588;SDS011;5342;55.676;13.346;2022-10-22T02:59:07;65.33;;;36.50;;
10588;SDS011;5342;55.676;13.346;2022-10-22T03:01:34;74.50;;;37.37;;
10588;SDS011;5342;55.676;13.346;2022-10-22T03:04:00;69.73;;;36.50;;
10588;SDS011;5342;55.676;13.346;2022-10-22T03:06:27;81.83;;;39.30;;
10588;SDS011;5342;55.676;13.346;2022-10-22T03:08:53;83.57;;;39.53;;
10588;SDS011;5342;55.676;13.346;2022-10-22T03:11:20;77.83;;;39.50;;
10588;SDS011;5342;55.676;13.346;2022-10-22T03:13:46;82.00;;;38.33;;
10588;SDS011;5342;55.676;13.346;2022-10-22T03:16:13;84.27;;;39.87;;
10588;SDS011;5342;55.676;13.346;2022-10-22T03:18:39;114.53;;;41.93;;
10588;SDS011;5342;55.676;13.346;2022-10-22T03:23:35;99.80;;;41.63;;
10588;SDS011;5342;55.676;13.346;2022-10-22T03:26:02;98.10;;;41.43;;
10588;SDS011;5342;55.676;13.346;2022-10-22T03:28:29;140.10;;;45.03;;
10588;SDS011;5342;55.676;13.346;2022-10-22T03:30:56;109.40;;;41.87;;
10588;SDS011;5342;55.676;13.346;2022-10-22T03:33:22;102.13;;;39.57;;
10588;SDS011;5342;55.676;13.346;2022-10-22T03:35:49;110.57;;;41.00;;
10588;SDS011;5342;55.676;13.346;2022-10-22T03:38:15;98.67;;;39.60;;
10588;SDS011;5342;55.676;13.346;2022-10-22T03:40:42;89.47;;;39.50;;
10588;SDS011;5342;55.676;13.346;2022-10-22T03:43:09;97.00;;;40.50;;
10588;SDS011;5342;55.676;13.346;2022-10-22T03:45:36;122.67;;;42.27;;
10588;SDS011;5342;55.676;13.346;2022-10-22T03:48:02;110.93;;;42.80;;
10588;SDS011;5342;55.676;13.346;2022-10-22T03:50:29;122.43;;;42.17;;
10588;SDS011;5342;55.676;13.346;2022-10-22T03:52:56;107.20;;;41.53;;
10588;SDS011;5342;55.676;13.346;2022-10-22T03:55:23;99.53;;;39.63;;
10588;SDS011;5342;55.676;13.346;2022-10-22T03:57:49;123.63;;;43.87;;
10588;SDS011;5342;55.676;13.346;2022-10-22T04:00:16;151.67;;;45.77;;
10588;SDS011;5342;55.676;13.346;2022-10-22T04:02:42;150.47;;;43.33;;
10588;SDS011;5342;55.676;13.346;2022-10-22T04:05:09;134.33;;;44.63;;
10588;SDS011;5342;55.676;13.346;2022-10-22T04:07:35;175.70;;;47.20;;
10588;SDS011;5342;55.676;13.346;2022-10-22T04:10:02;110.23;;;41.50;;
10588;SDS011;5342;55.676;13.346;2022-10-22T04:12:29;100.37;;;41.00;;
10588;SDS011;5342;55.676;13.346;2022-10-22T04:14:55;160.50;;;45.47;;
10588;SDS011;5342;55.676;13.346;2022-10-22T04:17:22;113.47;;;43.17;;
10588;SDS011;5342;55.676;13.346;2022-10-22T04:19:48;134.23;;;44.33;;
10588;SDS011;5342;55.676;13.346;2022-10-22T04:22:15;175.60;;;48.33;;
10588;SDS011;5342;55.676;13.346;2022-10-22T04:24:43;171.50;;;47.30;;
10588;SDS011;5342;55.676;13.346;2022-10-22T04:27:10;164.80;;;46.33;;
10588;SDS011;5342;55.676;13.346;2022-10-22T04:29:37;153.77;;;47.47;;
10588;SDS011;5342;55.676;13.346;2022-10-22T04:32:03;136.47;;;45.17;;
10588;SDS011;5342;55.676;13.346;2022-10-22T04:34:30;108.90;;;42.90;;
10588;SDS011;5342;55.676;13.346;2022-10-22T04:36:57;174.27;;;46.50;;
10588;SDS011;5342;55.676;13.346;2022-10-22T04:39:23;126.90;;;44.10;;
10588;SDS011;5342;55.676;13.346;2022-10-22T04:41:50;165.43;;;45.83;;
10588;SDS011;5342;55.676;13.346;2022-10-22T04:44:16;105.43;;;42.00;;
10588;SDS011;5342;55.676;13.346;2022-10-22T04:46:43;112.40;;;42.53;;
10588;SDS011;5342;55.676;13.346;2022-10-22T04:49:09;103.87;;;39.73;;
10588;SDS011;5342;55.676;13.346;2022-10-22T04:51:36;138.80;;;45.10;;
10588;SDS011;5342;55.676;13.346;2022-10-22T04:54:02;130.13;;;42.90;;
10588;SDS011;5342;55.676;13.346;2022-10-22T04:56:30;100.83;;;41.43;;
10588;SDS011;5342;55.676;13.346;2022-10-22T04:58:58;99.27;;;42.23;;
10588;SDS011;5342;55.676;13.346;2022-10-22T05:01:26;100.90;;;40.97;;
10588;SDS011;5342;55.676;13.346;2022-10-22T05:03:53;115.40;;;43.63;;
10588;SDS011;5342;55.676;13.346;2022-10-22T05:06:20;109.03;;;43.40;;
10588;SDS011;5342;55.676;13.346;2022-10-22T05:08:47;112.50;;;42.93;;
10588;SDS011;5342;55.676;13.346;2022-10-22T05:11:15;103.27;;;41.10;;
10588;SDS011;5342;55.676;13.346;2022-10-22T05:13:42;123.57;;;42.33;;
10588;SDS011;5342;55.676;13.346;2022-10-22T05:16:09;117.40;;;42.50;;
10588;SDS011;5342;55.676;13.346;2022-10-22T05:18:36;79.73;;;37.60;;
10588;SDS011;5342;55.676;13.346;2022-10-22T05:21:03;118.33;;;43.87;;
10588;SDS011;5342;55.676;13.346;2022-10-22T05:23:30;93.07;;;41.20;;
10588;SDS011;5342;55.676;13.346;2022-10-22T05:25:56;96.20;;;39.50;;
10588;SDS011;5342;55.676;13.346;2022-10-22T05:28:23;117.37;;;41.57;;
10588;SDS011;5342;55.676;13.346;2022-10-22T05:30:55;115.47;;;44.43;;
10588;SDS011;5342;55.676;13.346;2022-10-22T05:33:23;94.27;;;41.47;;
10588;SDS011;5342;55.676;13.346;2022-10-22T05:35:49;94.70;;;40.50;;
10588;SDS011;5342;55.676;13.346;2022-10-22T05:38:16;138.17;;;44.20;;
10588;SDS011;5342;55.676;13.346;2022-10-22T05:40:43;103.50;;;41.50;;
10588;SDS011;5342;55.676;13.346;2022-10-22T05:43:10;116.87;;;41.73;;
10588;SDS011;5342;55.676;13.346;2022-10-22T05:45:37;126.03;;;42.80;;
10588;SDS011;5342;55.676;13.346;2022-10-22T05:48:04;102.10;;;41.90;;
10588;SDS011;5342;55.676;13.346;2022-10-22T05:50:31;96.80;;;40.60;;
10588;SDS011;5342;55.676;13.346;2022-10-22T05:52:57;82.97;;;39.03;;
10588;SDS011;5342;55.676;13.346;2022-10-22T05:55:24;84.73;;;40.00;;
10588;SDS011;5342;55.676;13.346;2022-10-22T05:57:50;78.13;;;36.93;;
10588;SDS011;5342;55.676;13.346;2022-10-22T06:00:17;74.33;;;36.03;;
10588;SDS011;5342;55.676;13.346;2022-10-22T06:02:44;78.27;;;36.47;;
10588;SDS011;5342;55.676;13.346;2022-10-22T06:05:14;83.03;;;39.87;;
10588;SDS011;5342;55.676;13.346;2022-10-22T06:07:40;122.30;;;42.30;;
10588;SDS011;5342;55.676;13.346;2022-10-22T06:10:17;81.57;;;37.53;;
10588;SDS011;5342;55.676;13.346;2022-10-22T06:12:47;102.57;;;41.80;;
10588;SDS011;5342;55.676;13.346;2022-10-22T06:15:15;113.37;;;41.90;;
10588;SDS011;5342;55.676;13.346;2022-10-22T06:17:45;141.37;;;42.63;;
10588;SDS011;5342;55.676;13.346;2022-10-22T06:20:12;176.50;;;42.67;;
10588;SDS011;5342;55.676;13.346;2022-10-22T06:22:39;89.23;;;39.07;;
10588;SDS011;5342;55.676;13.346;2022-10-22T06:25:06;98.17;;;36.23;;
10588;SDS011;5342;55.676;13.346;2022-10-22T06:27:33;77.00;;;34.47;;
10588;SDS011;5342;55.676;13.346;2022-10-22T06:29:59;141.53;;;41.93;;
10588;SDS011;5342;55.676;13.346;2022-10-22T06:32:26;129.50;;;43.47;;
10588;SDS011;5342;55.676;13.346;2022-10-22T06:34:52;152.57;;;45.40;;
10588;SDS011;5342;55.676;13.346;2022-10-22T06:37:19;183.53;;;46.97;;
10588;SDS011;5342;55.676;13.346;2022-10-22T06:39:45;167.83;;;45.77;;
10588;SDS011;5342;55.676;13.346;2022-10-22T06:42:12;116.60;;;41.37;;
10588;SDS011;5342;55.676;13.346;2022-10-22T06:44:38;117.57;;;41.83;;
10588;SDS011;5342;55.676;13.346;2022-10-22T06:47:05;157.43;;;45.77;;
10588;SDS011;5342;55.676;13.346;2022-10-22T06:49:31;130.03;;;42.73;;
10588;SDS011;5342;55.676;13.346;2022-10-22T06:51:58;198.27;;;47.60;;
10588;SDS011;5342;55.676;13.346;2022-10-22T06:54:25;318.40;;;55.17;;
10588;SDS011;5342;55.676;13.346;2022-10-22T06:56:52;139.23;;;43.70;;
10588;SDS011;5342;55.676;13.346;2022-10-22T06:59:18;189.43;;;45.43;;
10588;SDS011;5342;55.676;13.346;2022-10-22T07:01:45;124.37;;;42.53;;
10588;SDS011;5342;55.676;13.346;2022-10-22T07:04:11;425.70;;;61.53;;
10588;SDS011;5342;55.676;13.346;2022-10-22T07:06:38;190.03;;;47.03;;
10588;SDS011;5342;55.676;13.346;2022-10-22T07:09:04;170.87;;;46.73;;
10588;SDS011;5342;55.676;13.346;2022-10-22T07:11:35;321.10;;;54.47;;
10588;SDS011;5342;55.676;13.346;2022-10-22T07:14:04;159.00;;;47.00;;
10588;SDS011;5342;55.676;13.346;2022-10-22T07:16:30;305.73;;;53.70;;
10588;SDS011;5342;55.676;13.346;2022-10-22T07:18:57;453.60;;;63.77;;
10588;SDS011;5342;55.676;13.346;2022-10-22T07:21:23;373.33;;;57.47;;
10588;SDS011;5342;55.676;13.346;2022-10-22T07:23:50;318.90;;;52.40;;
10588;SDS011;5342;55.676;13.346;2022-10-22T07:26:17;393.00;;;59.00;;
10588;SDS011;5342;55.676;13.346;2022-10-22T07:28:45;274.77;;;51.03;;
10588;SDS011;5342;55.676;13.346;2022-10-22T07:31:12;136.33;;;42.97;;
10588;SDS011;5342;55.676;13.346;2022-10-22T07:33:39;285.13;;;52.50;;
10588;SDS011;5342;55.676;13.346;2022-10-22T07:36:07;183.43;;;48.27;;
10588;SDS011;5342;55.676;13.346;2022-10-22T07:38:34;325.10;;;52.73;;
10588;SDS011;5342;55.676;13.346;2022-10-22T07:41:01;370.60;;;55.60;;
10588;SDS011;5342;55.676;13.346;2022-10-22T07:43:28;285.87;;;51.27;;
10588;SDS011;5342;55.676;13.346;2022-10-22T07:45:54;303.13;;;49.93;;
10588;SDS011;5342;55.676;13.346;2022-10-22T07:48:21;485.87;;;64.43;;
10588;SDS011;5342;55.676;13.346;2022-10-22T07:50:48;377.10;;;55.20;;
10588;SDS011;5342;55.676;13.346;2022-10-22T07:53:15;353.50;;;54.97;;
10588;SDS011;5342;55.676;13.346;2022-10-22T07:55:41;341.20;;;53.23;;
10588;SDS011;5342;55.676;13.346;2022-10-22T07:58:08;432.43;;;58.57;;
10588;SDS011;5342;55.676;13.346;2022-10-22T08:00:34;440.50;;;61.10;;
10588;SDS011;5342;55.676;13.346;2022-10-22T08:03:02;406.73;;;57.70;;
10588;SDS011;5342;55.676;13.346;2022-10-22T08:05:28;431.30;;;57.83;;
10588;SDS011;5342;55.676;13.346;2022-10-22T08:07:55;470.97;;;60.50;;
10588;SDS011;5342;55.676;13.346;2022-10-22T08:10:21;352.80;;;53.60;;
10588;SDS011;5342;55.676;13.346;2022-10-22T08:12:48;307.77;;;49.53;;
10588;SDS011;5342;55.676;13.346;2022-10-22T08:15:14;566.50;;;68.80;;
10588;SDS011;5342;55.676;13.346;2022-10-22T08:17:41;571.70;;;67.40;;
10588;SDS011;5342;55.676;13.346;2022-10-22T08:20:08;272.70;;;48.73;;
10588;SDS011;5342;55.676;13.346;2022-10-22T08:22:35;455.63;;;60.50;;
10588;SDS011;5342;55.676;13.346;2022-10-22T08:25:01;508.00;;;62.50;;
10588;SDS011;5342;55.676;13.346;2022-10-22T08:27:28;455.13;;;56.87;;
10588;SDS011;5342;55.676;13.346;2022-10-22T08:29:54;360.47;;;54.63;;
10588;SDS011;5342;55.676;13.346;2022-10-22T08:32:21;449.27;;;56.77;;
10588;SDS011;5342;55.676;13.346;2022-10-22T08:34:47;407.97;;;56.90;;
10588;SDS011;5342;55.676;13.346;2022-10-22T08:37:14;285.20;;;48.73;;
10588;SDS011;5342;55.676;13.346;2022-10-22T08:39:42;318.67;;;52.63;;
10588;SDS011;5342;55.676;13.346;2022-10-22T08:50:17;514.43;;;65.60;;
10588;SDS011;5342;55.676;13.346;2022-10-22T08:52:45;446.30;;;63.03;;
10588;SDS011;5342;55.676;13.346;2022-10-22T08:55:13;525.70;;;61.80;;
10588;SDS011;5342;55.676;13.346;2022-10-22T09:00:18;524.17;;;65.70;;
10588;SDS011;5342;55.676;13.346;2022-10-22T09:03:01;282.93;;;53.53;;
10588;SDS011;5342;55.676;13.346;2022-10-22T09:08:12;525.93;;;76.43;;
10588;SDS011;5342;55.676;13.346;2022-10-22T09:10:42;518.10;;;64.80;;
10588;SDS011;5342;55.676;13.346;2022-10-22T09:13:11;244.77;;;52.33;;
10588;SDS011;5342;55.676;13.346;2022-10-22T09:15:39;559.27;;;77.47;;
10588;SDS011;5342;55.676;13.346;2022-10-22T09:20:52;686.03;;;114.87;;
10588;SDS011;5342;55.676;13.346;2022-10-22T09:23:48;489.93;;;97.40;;
10588;SDS011;5342;55.676;13.346;2022-10-22T09:26:16;624.20;;;75.20;;
10588;SDS011;5342;55.676;13.346;2022-10-22T09:28:42;671.03;;;84.43;;
10588;SDS011;5342;55.676;13.346;2022-10-22T09:31:13;405.53;;;58.37;;
10588;SDS011;5342;55.676;13.346;2022-10-22T09:33:40;573.90;;;69.67;;
10588;SDS011;5342;55.676;13.346;2022-10-22T09:36:07;498.33;;;71.17;;
10588;SDS011;5342;55.676;13.346;2022-10-22T09:38:39;563.13;;;73.27;;
10588;SDS011;5342;55.676;13.346;2022-10-22T09:41:07;655.40;;;83.17;;
10588;SDS011;5342;55.676;13.346;2022-10-22T09:43:34;464.07;;;64.03;;
10588;SDS011;5342;55.676;13.346;2022-10-22T09:46:02;584.77;;;78.60;;
10588;SDS011;5342;55.676;13.346;2022-10-22T09:53:28;457.23;;;105.83;;
10588;SDS011;5342;55.676;13.346;2022-10-22T09:55:56;238.70;;;58.37;;
10588;SDS011;5342;55.676;13.346;2022-10-22T09:58:23;522.40;;;70.23;;
10588;SDS011;5342;55.676;13.346;2022-10-22T10:00:51;325.07;;;56.70;;
10588;SDS011;5342;55.676;13.346;2022-10-22T10:03:19;218.97;;;49.70;;
10588;SDS011;5342;55.676;13.346;2022-10-22T10:05:47;467.80;;;64.17;;
10588;SDS011;5342;55.676;13.346;2022-10-22T10:08:15;350.00;;;54.67;;
10588;SDS011;5342;55.676;13.346;2022-10-22T10:16:01;183.70;;;41.67;;
10588;SDS011;5342;55.676;13.346;2022-10-22T10:21:05;277.87;;;50.50;;
10588;SDS011;5342;55.676;13.346;2022-10-22T10:23:39;216.97;;;49.67;;
10588;SDS011;5342;55.676;13.346;2022-10-22T10:26:13;324.50;;;51.70;;
10588;SDS011;5342;55.676;13.346;2022-10-22T10:28:45;376.43;;;54.43;;
10588;SDS011;5342;55.676;13.346;2022-10-22T10:36:30;155.87;;;44.43;;
10588;SDS011;5342;55.676;13.346;2022-10-22T10:44:27;240.73;;;48.00;;
10588;SDS011;5342;55.676;13.346;2022-10-22T10:47:15;201.37;;;48.13;;
10588;SDS011;5342;55.676;13.346;2022-10-22T10:49:45;338.47;;;56.60;;
10588;SDS011;5342;55.676;13.346;2022-10-22T10:52:15;393.13;;;57.17;;
10588;SDS011;5342;55.676;13.346;2022-10-22T10:58:07;224.80;;;52.87;;
10588;SDS011;5342;55.676;13.346;2022-10-22T11:00:18;277.97;;;56.47;;
10588;SDS011;5342;55.676;13.346;2022-10-22T11:08:17;318.80;;;60.87;;
10588;SDS011;5342;55.676;13.346;2022-10-22T11:10:47;208.30;;;55.27;;
10588;SDS011;5342;55.676;13.346;2022-10-22T11:13:18;269.77;;;60.17;;
10588;SDS011;5342;55.676;13.346;2022-10-22T11:15:47;320.47;;;63.30;;
10588;SDS011;5342;55.676;13.346;2022-10-22T11:20:49;195.60;;;60.17;;
10588;SDS011;5342;55.676;13.346;2022-10-22T11:23:20;156.13;;;51.70;;
10588;SDS011;5342;55.676;13.346;2022-10-22T11:25:49;159.60;;;57.90;;
10588;SDS011;5342;55.676;13.346;2022-10-22T11:28:26;209.90;;;73.30;;
10588;SDS011;5342;55.676;13.346;2022-10-22T11:31:01;119.37;;;47.07;;
10588;SDS011;5342;55.676;13.346;2022-10-22T11:33:32;135.00;;;51.73;;
10588;SDS011;5342;55.676;13.346;2022-10-22T11:36:00;120.90;;;46.77;;
10588;SDS011;5342;55.676;13.346;2022-10-22T11:38:27;110.93;;;46.03;;
10588;SDS011;5342;55.676;13.346;2022-10-22T11:41:07;119.20;;;46.80;;
10588;SDS011;5342;55.676;13.346;2022-10-22T11:49:15;101.17;;;45.23;;
10588;SDS011;5342;55.676;13.346;2022-10-22T11:51:43;106.97;;;46.17;;
10588;SDS011;5342;55.676;13.346;2022-10-22T11:56:51;112.30;;;45.57;;
10588;SDS011;5342;55.676;13.346;2022-10-22T12:07:52;444.70;;;63.60;;
10588;SDS011;5342;55.676;13.346;2022-10-22T12:10:25;504.80;;;72.70;;
10588;SDS011;5342;55.676;13.346;2022-10-22T12:13:01;427.93;;;66.30;;
10588;SDS011;5342;55.676;13.346;2022-10-22T12:15:28;331.10;;;70.67;;
10588;SDS011;5342;55.676;13.346;2022-10-22T12:17:57;161.20;;;48.90;;
10588;SDS011;5342;55.676;13.346;2022-10-22T12:20:24;414.47;;;58.90;;
10588;SDS011;5342;55.676;13.346;2022-10-22T12:22:51;388.40;;;57.23;;
10588;SDS011;5342;55.676;13.346;2022-10-22T12:25:20;196.33;;;47.37;;
10588;SDS011;5342;55.676;13.346;2022-10-22T12:27:51;108.43;;;42.77;;
10588;SDS011;5342;55.676;13.346;2022-10-22T12:30:20;171.03;;;51.13;;
10588;SDS011;5342;55.676;13.346;2022-10-22T12:32:50;193.13;;;58.47;;
10588;SDS011;5342;55.676;13.346;2022-10-22T12:35:20;137.53;;;48.90;;
10588;SDS011;5342;55.676;13.346;2022-10-22T12:37:50;122.00;;;44.33;;
10588;SDS011;5342;55.676;13.346;2022-10-22T12:40:18;124.33;;;44.00;;
10588;SDS011;5342;55.676;13.346;2022-10-22T12:42:46;138.20;;;46.23;;
10588;SDS011;5342;55.676;13.346;2022-10-22T12:45:12;128.70;;;49.43;;
10588;SDS011;5342;55.676;13.346;2022-10-22T12:47:39;115.97;;;44.57;;
10588;SDS011;5342;55.676;13.346;2022-10-22T12:50:14;107.93;;;44.30;;
10588;SDS011;5342;55.676;13.346;2022-10-22T12:52:43;102.43;;;40.70;;
10588;SDS011;5342;55.676;13.346;2022-10-22T12:55:18;100.87;;;40.63;;
10588;SDS011;5342;55.676;13.346;2022-10-22T12:57:47;88.67;;;38.07;;
10588;SDS011;5342;55.676;13.346;2022-10-22T13:00:33;87.07;;;36.97;;
10588;SDS011;5342;55.676;13.346;2022-10-22T13:03:02;83.10;;;37.63;;
10588;SDS011;5342;55.676;13.346;2022-10-22T13:05:30;87.67;;;37.33;;
10588;SDS011;5342;55.676;13.346;2022-10-22T13:10:30;73.00;;;34.37;;
10588;SDS011;5342;55.676;13.346;2022-10-22T13:12:57;71.07;;;34.10;;
10588;SDS011;5342;55.676;13.346;2022-10-22T13:23:20;64.60;;;28.70;;
10588;SDS011;5342;55.676;13.346;2022-10-22T13:28:23;61.20;;;28.53;;
10588;SDS011;5342;55.676;13.346;2022-10-22T13:30:54;55.30;;;27.20;;
10588;SDS011;5342;55.676;13.346;2022-10-22T13:33:38;58.87;;;28.83;;
10588;SDS011;5342;55.676;13.346;2022-10-22T13:36:05;59.03;;;27.50;;
10588;SDS011;5342;55.676;13.346;2022-10-22T13:38:32;54.57;;;27.50;;
10588;SDS011;5342;55.676;13.346;2022-10-22T13:40:58;51.47;;;26.83;;
10588;SDS011;5342;55.676;13.346;2022-10-22T13:43:27;47.50;;;26.77;;
10588;SDS011;5342;55.676;13.346;2022-10-22T13:45:54;47.67;;;28.50;;
10588;SDS011;5342;55.676;13.346;2022-10-22T13:48:23;62.37;;;38.53;;
10588;SDS011;5342;55.676;13.346;2022-10-22T13:50:50;49.60;;;26.60;;
10588;SDS011;5342;55.676;13.346;2022-10-22T13:53:18;50.30;;;28.10;;
10588;SDS011;5342;55.676;13.346;2022-10-22T13:55:45;49.63;;;27.67;;
10588;SDS011;5342;55.676;13.346;2022-10-22T13:58:13;52.00;;;28.20;;
10588;SDS011;5342;55.676;13.346;2022-10-22T14:00:42;49.33;;;28.03;;
10588;SDS011;5342;55.676;13.346;2022-10-22T14:03:10;48.23;;;27.17;;
10588;SDS011;5342;55.676;13.346;2022-10-22T14:05:38;46.80;;;26.10;;
10588;SDS011;5342;55.676;13.346;2022-10-22T14:08:08;45.43;;;26.17;;
10588;SDS011;5342;55.676;13.346;2022-10-22T14:10:36;52.53;;;27.03;;
10588;SDS011;5342;55.676;13.346;2022-10-22T14:13:06;51.43;;;27.37;;
10588;SDS011;5342;55.676;13.346;2022-10-22T14:15:35;52.57;;;30.33;;
10588;SDS011;5342;55.676;13.346;2022-10-22T14:18:02;51.50;;;27.87;;
10588;SDS011;5342;55.676;13.346;2022-10-22T14:20:30;71.37;;;40.40;;
10588;SDS011;5342;55.676;13.346;2022-10-22T14:23:00;49.93;;;31.40;;
10588;SDS011;5342;55.676;13.346;2022-10-22T14:25:27;38.47;;;23.57;;
10588;SDS011;5342;55.676;13.346;2022-10-22T14:27:55;35.33;;;21.70;;
10588;SDS011;5342;55.676;13.346;2022-10-22T14:30:23;47.53;;;29.87;;
10588;SDS011;5342;55.676;13.346;2022-10-22T14:32:50;34.27;;;21.17;;
10588;SDS011;5342;55.676;13.346;2022-10-22T14:35:20;31.20;;;20.47;;
10588;SDS011;5342;55.676;13.346;2022-10-22T14:37:47;32.53;;;20.33;;
10588;SDS011;5342;55.676;13.346;2022-10-22T14:40:15;30.37;;;19.57;;
10588;SDS011;5342;55.676;13.346;2022-10-22T14:42:43;32.43;;;20.13;;
10588;SDS011;5342;55.676;13.346;2022-10-22T14:45:15;36.37;;;19.93;;
10588;SDS011;5342;55.676;13.346;2022-10-22T14:47:42;33.93;;;21.37;;
10588;SDS011;5342;55.676;13.346;2022-10-22T14:50:09;32.97;;;21.67;;
10588;SDS011;5342;55.676;13.346;2022-10-22T14:52:35;34.27;;;21.80;;
10588;SDS011;5342;55.676;13.346;2022-10-22T14:55:02;35.70;;;23.13;;
10588;SDS011;5342;55.676;13.346;2022-10-22T14:57:29;34.60;;;22.33;;
10588;SDS011;5342;55.676;13.346;2022-10-22T14:59:55;34.40;;;21.20;;
10588;SDS011;5342;55.676;13.346;2022-10-22T15:02:22;32.60;;;22.03;;
10588;SDS011;5342;55.676;13.346;2022-10-22T15:04:48;32.20;;;20.77;;
10588;SDS011;5342;55.676;13.346;2022-10-22T15:07:15;33.80;;;21.33;;
10588;SDS011;5342;55.676;13.346;2022-10-22T15:09:42;37.70;;;22.03;;
10588;SDS011;5342;55.676;13.346;2022-10-22T15:12:08;33.70;;;22.30;;
10588;SDS011;5342;55.676;13.346;2022-10-22T15:14:35;39.83;;;22.13;;
10588;SDS011;5342;55.676;13.346;2022-10-22T15:17:01;30.07;;;19.77;;
10588;SDS011;5342;55.676;13.346;2022-10-22T15:19:28;36.80;;;20.97;;
10588;SDS011;5342;55.676;13.346;2022-10-22T15:21:54;37.00;;;21.97;;
10588;SDS011;5342;55.676;13.346;2022-10-22T15:24:21;34.30;;;21.57;;
10588;SDS011;5342;55.676;13.346;2022-10-22T15:26:47;37.50;;;21.77;;
10588;SDS011;5342;55.676;13.346;2022-10-22T15:29:17;38.47;;;22.00;;
10588;SDS011;5342;55.676;13.346;2022-10-22T15:31:53;43.80;;;22.43;;
10588;SDS011;5342;55.676;13.346;2022-10-22T15:34:26;37.07;;;21.47;;
10588;SDS011;5342;55.676;13.346;2022-10-22T15:36:56;40.07;;;21.90;;
10588;SDS011;5342;55.676;13.346;2022-10-22T15:39:23;39.83;;;20.77;;
10588;SDS011;5342;55.676;13.346;2022-10-22T15:41:50;35.90;;;21.10;;
10588;SDS011;5342;55.676;13.346;2022-10-22T15:44:18;96.67;;;24.87;;
10588;SDS011;5342;55.676;13.346;2022-10-22T15:46:45;38.17;;;21.50;;
10588;SDS011;5342;55.676;13.346;2022-10-22T15:49:12;40.53;;;21.13;;
10588;SDS011;5342;55.676;13.346;2022-10-22T15:51:38;41.53;;;21.53;;
10588;SDS011;5342;55.676;13.346;2022-10-22T15:54:05;41.47;;;20.77;;
10588;SDS011;5342;55.676;13.346;2022-10-22T15:56:32;40.90;;;21.87;;
10588;SDS011;5342;55.676;13.346;2022-10-22T15:59:00;42.10;;;21.60;;
10588;SDS011;5342;55.676;13.346;2022-10-22T16:01:28;45.67;;;23.03;;
10588;SDS011;5342;55.676;13.346;2022-10-22T16:03:55;39.37;;;22.07;;
10588;SDS011;5342;55.676;13.346;2022-10-22T16:06:27;46.93;;;22.67;;
10588;SDS011;5342;55.676;13.346;2022-10-22T16:08:55;43.73;;;20.57;;
10588;SDS011;5342;55.676;13.346;2022-10-22T16:11:22;38.80;;;20.80;;
10588;SDS011;5342;55.676;13.346;2022-10-22T16:13:51;37.37;;;20.40;;